This is the latest recevied weather packets stored in our database for station/object W7TTE. If no packets are shown the sender has not sent any weather packets the latest 10 day(s).
| Time | Temp. | Humidity | Pressure | Rain* | Wind** | Luminosity | Snow |
|---|---|---|---|---|---|---|---|
| 1777767262 | 33.89° C | 17% | 1011.5 hPa | 0 mm | - | 115 W/m² | - |
| 1777766960 | 33.89° C | 18% | 1011.6 hPa | 0 mm | - | 126 W/m² | - |
| 1777766657 | 34.44° C | 17% | 1011.4 hPa | 0 mm | - | 152 W/m² | - |
| 1777766354 | 34.44° C | 17% | 1011.5 hPa | 0 mm | - | 208 W/m² | - |
| 1777764837 | 35° C | 16% | 1011.3 hPa | 0 mm | - | 356 W/m² | - |
| 1777764535 | 35° C | 16% | 1011.5 hPa | 0 mm | - | 368 W/m² | - |
| 1777764231 | 34.44° C | 17% | 1011.4 hPa | 0 mm | - | 310 W/m² | - |
| 1777763928 | 35° C | 16% | 1011.4 hPa | 0 mm | - | 277 W/m² | - |
| 1777760598 | 35° C | 16% | 1012.1 hPa | 0 mm | - | 440 W/m² | - |
| 1777758777 | 35.56° C | 16% | 1012.8 hPa | 0 mm | - | 608 W/m² | - |
| 1777758474 | 35° C | 16% | 1012.8 hPa | 0 mm | - | 599 W/m² | - |
| 1777757868 | 35° C | 16% | 1012.8 hPa | 0 mm | - | 593 W/m² | - |
| 1777757264 | 35° C | 15% | 1013.1 hPa | 0 mm | - | 637 W/m² | - |
| 1777756962 | 35.56° C | 15% | 1013.1 hPa | 0 mm | - | 567 W/m² | - |
| 1777755142 | 35° C | 16% | 1013.4 hPa | 0 mm | - | 730 W/m² | - |
| 1777752718 | 35° C | 17% | 1013.9 hPa | 0 mm | - | 768 W/m² | - |
| 1777752414 | 35.56° C | 16% | 1014 hPa | 0 mm | - | 782 W/m² | - |
| 1777751809 | 34.44° C | 17% | 1013.9 hPa | 0 mm | - | 784 W/m² | - |
| 1777751202 | 34.44° C | 17% | 1014.4 hPa | 0 mm | - | 785 W/m² | - |
| 1777750596 | 34.44° C | 17% | 1014.5 hPa | 0 mm | - | 788 W/m² | - |
| 1777749987 | 33.89° C | 19% | 1014.6 hPa | 0 mm | - | 786 W/m² | - |
| 1777749381 | 34.44° C | 19% | 1014.7 hPa | 0 mm | - | 785 W/m² | - |
| 1777749079 | 34.44° C | 19% | 1014.7 hPa | 0 mm | - | 784 W/m² | - |
| 1777748777 | 34.44° C | 20% | 1014.7 hPa | 0 mm | - | 785 W/m² | - |
| 1777747866 | 34.44° C | 20% | 1014.9 hPa | 0 mm | - | 780 W/m² | - |
* Rain latest hour (hover to see other rain measurements)
** Current wind speed in m/s (hover to see current wind gust speed)